Time;durP1;ratioP1;P1;durP2;ratioP2;P2;SDS_P1;SDS_P2;PMS_P1;PMS_P2;Temp;Humidity;BMP_temperature;BMP_pressure;BME280_temperature;BME280_humidity;BME280_pressure;Samples;Min_cycle;Max_cycle;Signal;HPM_P1;HPM_P2
2023/02/27 00:01:32;;;;;;;;;;;;;;;;;;4903761;29;20307;-82
2023/02/27 00:07:27;;;;;;;;;;;;;;;;;;4910694;29;19922;-87
2023/02/27 00:13:29;;;;;;;;;;;;;;;;;;4928393;29;19950;-83
2023/02/27 00:16:16;;;;;;;;;;;;;;;;;;4941259;28;19918;-81
2023/02/27 00:19:14;;;;;;;;;;;;;;;;;;4902904;29;19935;-84
2023/02/27 00:22:01;;;;;;;;;;;;;;;;;;4935512;28;19925;-81
2023/02/27 00:24:50;;;;;;;;;;;;;;;;;;4937086;29;19919;-83
2023/02/27 00:27:37;;;;;;;;;;;;;;;;;;4941533;28;19929;-80
2023/02/27 00:30:25;;;;;;;;;;;;;;;;;;4940995;28;20361;-80
2023/02/27 00:33:11;;;;;;;;;;;;;;;;;;4949751;28;19922;-81
2023/02/27 00:35:58;;;;;;;;;;;;;;;;;;4938130;28;19919;-81
2023/02/27 00:38:44;;;;;;;;;;;;;;;;;;4936320;28;20271;-81
2023/02/27 00:41:31;;;;;;;;;;;;;;;;;;4924848;29;19922;-80
2023/02/27 00:44:17;;;;;;;;;;;;;;;;;;4941850;28;19918;-80
2023/02/27 00:47:04;;;;;;;;;;;;;;;;;;4944980;28;20393;-80
2023/02/27 00:49:50;;;;;;;;;;;;;;;;;;4940169;28;19922;-80
2023/02/27 00:52:37;;;;;;;;;;;;;;;;;;4929369;28;19934;-84
2023/02/27 00:55:23;;;;;;;;;;;;;;;;;;4942818;29;19919;-81
2023/02/27 00:58:10;;;;;;;;;;;;;;;;;;4932942;28;20378;-83
2023/02/27 01:00:56;;;;;;;;;;;;;;;;;;4943486;28;19926;-83
2023/02/27 01:03:43;;;;;;;;;;;;;;;;;;4947433;28;20271;-82
2023/02/27 01:06:29;;;;;;;;;;;;;;;;;;4949847;28;19923;-83
2023/02/27 01:09:15;;;;;;;;;;;;;;;;;;4932151;28;20433;-82
2023/02/27 01:12:02;;;;;;;;;;;;;;;;;;4945479;28;19933;-82
2023/02/27 01:14:48;;;;;;;;;;;;;;;;;;4937779;28;20370;-82
2023/02/27 01:17:35;;;;;;;;;;;;;;;;;;4931452;29;19919;-83
2023/02/27 01:20:21;;;;;;;;;;;;;;;;;;4944612;28;19919;-83
2023/02/27 01:23:08;;;;;;;;;;;;;;;;;;4931892;28;19943;-83
2023/02/27 01:25:54;;;;;;;;;;;;;;;;;;4943902;29;19926;-84
2023/02/27 01:28:41;;;;;;;;;;;;;;;;;;4944692;29;19934;-83
2023/02/27 01:31:27;;;;;;;;;;;;;;;;;;4946078;29;19919;-83
2023/02/27 01:34:14;;;;;;;;;;;;;;;;;;4938559;29;19926;-85
2023/02/27 01:37:00;;;;;;;;;;;;;;;;;;4946087;28;19943;-83
2023/02/27 01:39:47;;;;;;;;;;;;;;;;;;4945780;29;19922;-83
2023/02/27 01:42:33;;;;;;;;;;;;;;;;;;4949033;28;19925;-84
2023/02/27 01:45:20;;;;;;;;;;;;;;;;;;4944891;28;19918;-83
2023/02/27 01:48:06;;;;;;;;;;;;;;;;;;4943906;29;19922;-83
2023/02/27 01:50:53;;;;;;;;;;;;;;;;;;4943189;29;20019;-83
2023/02/27 01:53:39;;;;;;;;;;;;;;;;;;4920384;29;19926;-84
2023/02/27 01:56:26;;;;;;;;;;;;;;;;;;4938218;28;20556;-83
2023/02/27 01:59:12;;;;;;;;;;;;;;;;;;4932336;29;19918;-83
2023/02/27 02:01:59;;;;;;;;;;;;;;;;;;4942531;28;19925;-83
2023/02/27 02:04:45;;;;;;;;;;;;;;;;;;4945766;28;20648;-83
2023/02/27 02:07:31;;;;;;;;;;;;;;;;;;4932754;29;19919;-83
2023/02/27 02:10:18;;;;;;;;;;;;;;;;;;4935227;29;19926;-85
2023/02/27 02:13:04;;;;;;;;;;;;;;;;;;4931458;29;20375;-85
2023/02/27 02:15:51;;;;;;;;;;;;;;;;;;4927078;29;20307;-86
2023/02/27 02:18:37;;;;;;;;;;;;;;;;;;4943881;29;19919;-82
2023/02/27 02:21:24;;;;;;;;;;;;;;;;;;4943123;28;19952;-82
2023/02/27 02:24:10;;;;;;;;;;;;;;;;;;4940180;29;19925;-81
2023/02/27 02:26:57;;;;;;;;;;;;;;;;;;4929706;29;19921;-84
2023/02/27 02:29:44;;;;;;;;;;;;;;;;;;4939811;28;19918;-84
2023/02/27 02:32:30;;;;;;;;;;;;;;;;;;4936622;28;19937;-85
2023/02/27 02:35:17;;;;;;;;;;;;;;;;;;4940895;28;19941;-85
2023/02/27 02:38:03;;;;;;;;;;;;;;;;;;4935655;29;19934;-85
2023/02/27 02:40:50;;;;;;;;;;;;;;;;;;4930790;29;19919;-84
2023/02/27 02:43:36;;;;;;;;;;;;;;;;;;4939074;29;19919;-86
2023/02/27 02:46:23;;;;;;;;;;;;;;;;;;4939509;28;19918;-86
2023/02/27 02:49:09;;;;;;;;;;;;;;;;;;4943580;29;19919;-86
2023/02/27 02:51:56;;;;;;;;;;;;;;;;;;4940923;29;19933;-86
2023/02/27 02:54:42;;;;;;;;;;;;;;;;;;4937841;28;19919;-86
2023/02/27 02:57:29;;;;;;;;;;;;;;;;;;4945604;29;19925;-86
2023/02/27 03:00:15;;;;;;;;;;;;;;;;;;4921654;29;19921;-85
2023/02/27 03:03:02;;;;;;;;;;;;;;;;;;4947394;28;20275;-83
2023/02/27 03:05:48;;;;;;;;;;;;;;;;;;4944561;28;19919;-84
2023/02/27 03:08:35;;;;;;;;;;;;;;;;;;4950635;28;19921;-83
2023/02/27 03:11:21;;;;;;;;;;;;;;;;;;4949915;29;19960;-84
2023/02/27 03:14:08;;;;;;;;;;;;;;;;;;4943576;29;19932;-84
2023/02/27 03:16:54;;;;;;;;;;;;;;;;;;4942650;28;19942;-84
2023/02/27 03:19:41;;;;;;;;;;;;;;;;;;4948795;28;20367;-83
2023/02/27 03:22:27;;;;;;;;;;;;;;;;;;4951448;28;19930;-84
2023/02/27 03:25:14;;;;;;;;;;;;;;;;;;4947215;28;19935;-84
2023/02/27 03:28:00;;;;;;;;;;;;;;;;;;4934187;29;19922;-84
2023/02/27 03:30:46;;;;;;;;;;;;;;;;;;4946712;28;20394;-84
2023/02/27 03:33:34;;;;;;;;;;;;;;;;;;4942123;28;19933;-83
2023/02/27 03:36:20;;;;;;;;;;;;;;;;;;4945364;28;19925;-84
2023/02/27 03:39:06;;;;;;;;;;;;;;;;;;4944055;28;19919;-82
2023/02/27 03:41:53;;;;;;;;;;;;;;;;;;4948099;28;20311;-82
2023/02/27 03:44:39;;;;;;;;;;;;;;;;;;4950205;28;19926;-82
2023/02/27 03:47:26;;;;;;;;;;;;;;;;;;4934395;29;19919;-83
2023/02/27 03:50:12;;;;;;;;;;;;;;;;;;4952253;28;19925;-83
2023/02/27 03:52:59;;;;;;;;;;;;;;;;;;4945499;28;19927;-83
2023/02/27 03:55:45;;;;;;;;;;;;;;;;;;4946655;28;19926;-82
2023/02/27 03:58:32;;;;;;;;;;;;;;;;;;4934528;28;19918;-83
2023/02/27 04:01:18;;;;;;;;;;;;;;;;;;4955553;28;20290;-83
2023/02/27 04:04:05;;;;;;;;;;;;;;;;;;4949071;28;19941;-84
2023/02/27 04:09:57;;;;;;;;;;;;;;;;;;4941094;28;19932;-84
2023/02/27 04:12:43;;;;;;;;;;;;;;;;;;4946536;29;19933;-84
2023/02/27 04:15:29;;;;;;;;;;;;;;;;;;4944795;29;20425;-86
2023/02/27 04:18:16;;;;;;;;;;;;;;;;;;4933588;28;19926;-84
2023/02/27 04:21:02;;;;;;;;;;;;;;;;;;4942316;28;20379;-86
2023/02/27 04:23:49;;;;;;;;;;;;;;;;;;4941149;28;19918;-84
2023/02/27 04:26:35;;;;;;;;;;;;;;;;;;4944611;28;19925;-85
2023/02/27 04:29:22;;;;;;;;;;;;;;;;;;4935702;28;20685;-84
2023/02/27 04:32:08;;;;;;;;;;;;;;;;;;4945336;29;19926;-83
2023/02/27 04:34:55;;;;;;;;;;;;;;;;;;4933455;28;19914;-85
2023/02/27 04:37:41;;;;;;;;;;;;;;;;;;4947504;29;19953;-84
2023/02/27 04:40:28;;;;;;;;;;;;;;;;;;4948466;28;19931;-85
2023/02/27 04:43:14;;;;;;;;;;;;;;;;;;4921980;28;19927;-84
2023/02/27 04:46:01;;;;;;;;;;;;;;;;;;4924930;29;19918;-84
2023/02/27 04:48:48;;;;;;;;;;;;;;;;;;4933695;28;20484;-84
2023/02/27 04:51:34;;;;;;;;;;;;;;;;;;4934191;28;20290;-83
2023/02/27 04:54:21;;;;;;;;;;;;;;;;;;4932870;29;19922;-82
2023/02/27 04:57:07;;;;;;;;;;;;;;;;;;4935931;28;19949;-84
2023/02/27 04:59:54;;;;;;;;;;;;;;;;;;4929922;29;19926;-81
2023/02/27 05:02:40;;;;;;;;;;;;;;;;;;4944900;28;20504;-82
2023/02/27 05:05:27;;;;;;;;;;;;;;;;;;4933667;29;20484;-81
2023/02/27 05:08:13;;;;;;;;;;;;;;;;;;4936364;28;19919;-83
2023/02/27 05:11:00;;;;;;;;;;;;;;;;;;4916137;29;24459;-81
2023/02/27 05:13:46;;;;;;;;;;;;;;;;;;4915286;29;19927;-84
2023/02/27 05:16:33;;;;;;;;;;;;;;;;;;4915477;29;19930;-85
2023/02/27 05:19:20;;;;;;;;;;;;;;;;;;4922201;29;19923;-82
2023/02/27 05:22:06;;;;;;;;;;;;;;;;;;4924498;29;19919;-83
2023/02/27 05:24:53;;;;;;;;;;;;;;;;;;4922136;29;19927;-82
2023/02/27 05:27:39;;;;;;;;;;;;;;;;;;4918517;29;20478;-82
2023/02/27 05:30:26;;;;;;;;;;;;;;;;;;4912841;29;20282;-82
2023/02/27 05:33:12;;;;;;;;;;;;;;;;;;4913432;29;19927;-82
2023/02/27 05:35:59;;;;;;;;;;;;;;;;;;4916783;29;19919;-82
2023/02/27 05:38:45;;;;;;;;;;;;;;;;;;4919986;29;19925;-82
2023/02/27 05:41:32;;;;;;;;;;;;;;;;;;4914714;29;19926;-79
2023/02/27 05:44:18;;;;;;;;;;;;;;;;;;4918776;29;19919;-80
2023/02/27 05:47:05;;;;;;;;;;;;;;;;;;4911081;29;19919;-80
2023/02/27 05:49:51;;;;;;;;;;;;;;;;;;4922587;29;20544;-80
2023/02/27 05:52:38;;;;;;;;;;;;;;;;;;4922301;29;19956;-80
2023/02/27 05:55:24;;;;;;;;;;;;;;;;;;4917736;29;20398;-81
2023/02/27 05:58:11;;;;;;;;;;;;;;;;;;4926758;29;19926;-80
2023/02/27 06:00:57;;;;;;;;;;;;;;;;;;4924910;29;20486;-82
2023/02/27 06:03:44;;;;;;;;;;;;;;;;;;4924755;29;19919;-81
2023/02/27 06:06:30;;;;;;;;;;;;;;;;;;4912937;29;19929;-80
2023/02/27 06:09:17;;;;;;;;;;;;;;;;;;4925537;29;20655;-80
2023/02/27 06:12:03;;;;;;;;;;;;;;;;;;4944628;29;20530;-80
2023/02/27 06:14:50;;;;;;;;;;;;;;;;;;4933727;28;19929;-81
2023/02/27 06:17:37;;;;;;;;;;;;;;;;;;4931162;28;19923;-80
2023/02/27 06:20:24;;;;;;;;;;;;;;;;;;4940102;28;19922;-79
2023/02/27 06:23:10;;;;;;;;;;;;;;;;;;4944972;28;19925;-80
2023/02/27 06:26:00;;;;;;;;;;;;;;;;;;4937977;28;20586;-81
2023/02/27 06:28:46;;;;;;;;;;;;;;;;;;4945017;29;19915;-80
2023/02/27 06:31:33;;;;;;;;;;;;;;;;;;4932540;29;19919;-80
2023/02/27 06:34:19;;;;;;;;;;;;;;;;;;4930561;29;19927;-79
2023/02/27 06:37:06;;;;;;;;;;;;;;;;;;4923415;28;19918;-79
2023/02/27 06:39:52;;;;;;;;;;;;;;;;;;4927491;28;19930;-80
2023/02/27 06:42:39;;;;;;;;;;;;;;;;;;4926155;29;20629;-79
2023/02/27 06:45:25;;;;;;;;;;;;;;;;;;4929491;28;19915;-79
2023/02/27 06:48:13;;;;;;;;;;;;;;;;;;4944089;29;19919;-79
2023/02/27 06:51:00;;;;;;;;;;;;;;;;;;4931615;29;20330;-79
2023/02/27 06:53:46;;;;;;;;;;;;;;;;;;4935991;29;19932;-80
2023/02/27 06:56:33;;;;;;;;;;;;;;;;;;4944756;29;19923;-81
2023/02/27 06:59:19;;;;;;;;;;;;;;;;;;4929883;29;19919;-80
2023/02/27 07:02:06;;;;;;;;;;;;;;;;;;4938485;28;19926;-80
2023/02/27 07:04:56;;;;;;;;;;;;;;;;;;4920614;29;19930;-79
2023/02/27 07:07:42;;;;;;;;;;;;;;;;;;4930506;28;19923;-80
2023/02/27 07:10:29;;;;;;;;;;;;;;;;;;4929102;29;19931;-79
2023/02/27 07:13:15;;;;;;;;;;;;;;;;;;4931473;28;19941;-80
2023/02/27 07:16:02;;;;;;;;;;;;;;;;;;4933608;28;19941;-81
2023/02/27 07:18:48;;;;;;;;;;;;;;;;;;4921917;28;19925;-80
2023/02/27 07:21:35;;;;;;;;;;;;;;;;;;4933666;28;19919;-80
2023/02/27 07:24:21;;;;;;;;;;;;;;;;;;4936233;28;20298;-80
2023/02/27 07:27:08;;;;;;;;;;;;;;;;;;4931998;28;19933;-80
2023/02/27 07:29:54;;;;;;;;;;;;;;;;;;4917765;28;19918;-79
2023/02/27 07:32:41;;;;;;;;;;;;;;;;;;4933623;28;19930;-79
2023/02/27 07:35:27;;;;;;;;;;;;;;;;;;4945664;28;20481;-79
2023/02/27 07:38:14;;;;;;;;;;;;;;;;;;4928539;28;19919;-78
2023/02/27 07:41:00;;;;;;;;;;;;;;;;;;4939894;28;19977;-79
2023/02/27 07:43:47;;;;;;;;;;;;;;;;;;4938404;29;19923;-78
2023/02/27 07:46:33;;;;;;;;;;;;;;;;;;4937779;28;19930;-79
2023/02/27 07:49:20;;;;;;;;;;;;;;;;;;4935400;29;19933;-78
2023/02/27 07:52:07;;;;;;;;;;;;;;;;;;4934518;29;20295;-78
2023/02/27 07:54:53;;;;;;;;;;;;;;;;;;4938810;29;19928;-77
2023/02/27 07:57:40;;;;;;;;;;;;;;;;;;4942324;28;19918;-78
2023/02/27 08:00:27;;;;;;;;;;;;;;;;;;4940836;28;19925;-78
2023/02/27 08:03:13;;;;;;;;;;;;;;;;;;4952755;28;19925;-79
2023/02/27 08:05:59;;;;;;;;;;;;;;;;;;4949442;28;19941;-79
2023/02/27 08:08:46;;;;;;;;;;;;;;;;;;4938395;28;19926;-79
2023/02/27 08:11:32;;;;;;;;;;;;;;;;;;4948098;28;19942;-78
2023/02/27 08:14:19;;;;;;;;;;;;;;;;;;4941493;28;20713;-79
2023/02/27 08:17:05;;;;;;;;;;;;;;;;;;4937705;29;19914;-78
2023/02/27 08:19:52;;;;;;;;;;;;;;;;;;4941971;29;20375;-79
2023/02/27 08:22:38;;;;;;;;;;;;;;;;;;4939316;29;19974;-78
2023/02/27 08:25:25;;;;;;;;;;;;;;;;;;4943757;28;19919;-78
2023/02/27 08:28:11;;;;;;;;;;;;;;;;;;4943821;29;19919;-78
2023/02/27 08:30:58;;;;;;;;;;;;;;;;;;4942039;28;19919;-79
2023/02/27 08:33:44;;;;;;;;;;;;;;;;;;4940740;29;19926;-79
2023/02/27 08:36:31;;;;;;;;;;;;;;;;;;4936030;28;19934;-79
2023/02/27 08:39:17;;;;;;;;;;;;;;;;;;4937169;28;19945;-79
2023/02/27 08:42:05;;;;;;;;;;;;;;;;;;4943930;28;19964;-79
2023/02/27 08:44:52;;;;;;;;;;;;;;;;;;4944374;28;19922;-78
2023/02/27 08:47:41;;;;;;;;;;;;;;;;;;4933959;29;19927;-79
2023/02/27 08:50:28;;;;;;;;;;;;;;;;;;4937639;28;19918;-79
2023/02/27 08:53:14;;;;;;;;;;;;;;;;;;4943305;28;19950;-79
2023/02/27 08:56:01;;;;;;;;;;;;;;;;;;4951525;28;19923;-77
2023/02/27 08:58:47;;;;;;;;;;;;;;;;;;4941550;29;20231;-79
2023/02/27 09:01:34;;;;;;;;;;;;;;;;;;4940183;29;19919;-78
2023/02/27 09:04:20;;;;;;;;;;;;;;;;;;4939309;28;19922;-79
2023/02/27 09:07:07;;;;;;;;;;;;;;;;;;4924919;29;19923;-78
2023/02/27 09:09:53;;;;;;;;;;;;;;;;;;4927792;29;19934;-77
2023/02/27 09:12:40;;;;;;;;;;;;;;;;;;4940212;29;19922;-77
2023/02/27 09:15:26;;;;;;;;;;;;;;;;;;4924968;29;19918;-78
2023/02/27 09:18:13;;;;;;;;;;;;;;;;;;4946008;28;19919;-79
2023/02/27 09:20:59;;;;;;;;;;;;;;;;;;4939849;29;19919;-78
2023/02/27 09:23:46;;;;;;;;;;;;;;;;;;4939897;28;19918;-78
2023/02/27 09:26:32;;;;;;;;;;;;;;;;;;4930066;29;19923;-79
2023/02/27 09:29:20;;;;;;;;;;;;;;;;;;4936301;28;19925;-78
2023/02/27 09:32:06;;;;;;;;;;;;;;;;;;4944372;28;19918;-79
2023/02/27 09:34:53;;;;;;;;;;;;;;;;;;4935955;28;20558;-78
2023/02/27 09:37:39;;;;;;;;;;;;;;;;;;4931390;28;19919;-78
2023/02/27 09:40:26;;;;;;;;;;;;;;;;;;4942434;29;20057;-79
2023/02/27 09:43:12;;;;;;;;;;;;;;;;;;4942041;28;19922;-78
2023/02/27 09:45:59;;;;;;;;;;;;;;;;;;4938399;29;19929;-79
2023/02/27 09:48:45;;;;;;;;;;;;;;;;;;4937740;28;20268;-79
2023/02/27 09:51:32;;;;;;;;;;;;;;;;;;4925675;29;19919;-78
2023/02/27 09:54:18;;;;;;;;;;;;;;;;;;4930663;29;19926;-79
2023/02/27 09:57:05;;;;;;;;;;;;;;;;;;4945038;28;20275;-79
2023/02/27 09:59:51;;;;;;;;;;;;;;;;;;4942927;28;19915;-79
2023/02/27 10:02:38;;;;;;;;;;;;;;;;;;4940425;28;20372;-79
2023/02/27 10:05:24;;;;;;;;;;;;;;;;;;4935397;28;19926;-79
2023/02/27 10:08:11;;;;;;;;;;;;;;;;;;4939892;28;20452;-79
2023/02/27 10:10:59;;;;;;;;;;;;;;;;;;4927857;29;19933;-79
2023/02/27 10:13:46;;;;;;;;;;;;;;;;;;4922869;29;19927;-79
2023/02/27 10:16:33;;;;;;;;;;;;;;;;;;4941758;28;19918;-79
2023/02/27 10:19:19;;;;;;;;;;;;;;;;;;4938797;29;19925;-79
2023/02/27 10:22:05;;;;;;;;;;;;;;;;;;4931416;29;19933;-79
2023/02/27 10:24:53;;;;;;;;;;;;;;;;;;4938744;28;19923;-79
2023/02/27 10:27:39;;;;;;;;;;;;;;;;;;4934812;29;19919;-78
2023/02/27 10:30:28;;;;;;;;;;;;;;;;;;4942725;28;19921;-79
2023/02/27 10:33:14;;;;;;;;;;;;;;;;;;4936218;29;19927;-79
2023/02/27 10:36:01;;;;;;;;;;;;;;;;;;4931949;29;19930;-79
2023/02/27 10:38:48;;;;;;;;;;;;;;;;;;4935009;29;19925;-78
2023/02/27 10:41:35;;;;;;;;;;;;;;;;;;4937165;29;19914;-79
2023/02/27 10:44:23;;;;;;;;;;;;;;;;;;4930726;29;19925;-79
2023/02/27 10:47:09;;;;;;;;;;;;;;;;;;4924719;29;20376;-79
2023/02/27 10:49:59;;;;;;;;;;;;;;;;;;4948194;28;19922;-79
2023/02/27 10:52:45;;;;;;;;;;;;;;;;;;4930406;29;19933;-80
2023/02/27 10:55:32;;;;;;;;;;;;;;;;;;4938169;29;20366;-79
2023/02/27 10:58:18;;;;;;;;;;;;;;;;;;4944879;28;19918;-79
2023/02/27 11:01:05;;;;;;;;;;;;;;;;;;4943097;28;19953;-79
2023/02/27 11:03:51;;;;;;;;;;;;;;;;;;4932525;28;19942;-79
2023/02/27 11:06:38;;;;;;;;;;;;;;;;;;4933479;28;19918;-80
2023/02/27 11:09:24;;;;;;;;;;;;;;;;;;4939935;28;19930;-79
2023/02/27 11:12:11;;;;;;;;;;;;;;;;;;4926752;28;19919;-79
2023/02/27 11:14:58;;;;;;;;;;;;;;;;;;4944126;28;19934;-79
2023/02/27 11:17:44;;;;;;;;;;;;;;;;;;4938130;28;20036;-79
2023/02/27 11:20:31;;;;;;;;;;;;;;;;;;4939369;28;20247;-78
2023/02/27 11:23:17;;;;;;;;;;;;;;;;;;4946714;28;19933;-79
2023/02/27 11:26:04;;;;;;;;;;;;;;;;;;4934651;28;19929;-79
2023/02/27 11:28:50;;;;;;;;;;;;;;;;;;4945494;29;19918;-78
2023/02/27 11:31:37;;;;;;;;;;;;;;;;;;4935711;29;19929;-78
2023/02/27 11:34:23;;;;;;;;;;;;;;;;;;4938518;28;19938;-78
2023/02/27 11:37:10;;;;;;;;;;;;;;;;;;4946458;28;20283;-80
2023/02/27 11:39:56;;;;;;;;;;;;;;;;;;4944755;28;19925;-79
2023/02/27 11:42:43;;;;;;;;;;;;;;;;;;4945168;29;20370;-79
2023/02/27 11:45:29;;;;;;;;;;;;;;;;;;4932740;28;19925;-79
2023/02/27 11:48:16;;;;;;;;;;;;;;;;;;4934917;29;19923;-79
2023/02/27 11:51:02;;;;;;;;;;;;;;;;;;4936304;29;19919;-79
2023/02/27 11:53:49;;;;;;;;;;;;;;;;;;4937339;29;19949;-80
2023/02/27 11:56:35;;;;;;;;;;;;;;;;;;4932351;29;20371;-80
2023/02/27 11:59:22;;;;;;;;;;;;;;;;;;4933678;29;19919;-80
2023/02/27 12:02:08;;;;;;;;;;;;;;;;;;4926637;29;19923;-79
2023/02/27 12:04:55;;;;;;;;;;;;;;;;;;4930096;29;19925;-79
2023/02/27 12:07:41;;;;;;;;;;;;;;;;;;4935834;28;20383;-79
2023/02/27 12:10:28;;;;;;;;;;;;;;;;;;4926840;28;19930;-78
2023/02/27 12:13:14;;;;;;;;;;;;;;;;;;4921337;28;19938;-78
2023/02/27 12:16:01;;;;;;;;;;;;;;;;;;4936214;29;19923;-80
2023/02/27 12:18:48;;;;;;;;;;;;;;;;;;4927838;28;19919;-79
2023/02/27 12:21:35;;;;;;;;;;;;;;;;;;4945921;28;19918;-78
2023/02/27 12:24:21;;;;;;;;;;;;;;;;;;4927272;28;19921;-78
2023/02/27 12:27:08;;;;;;;;;;;;;;;;;;4922378;29;19928;-78
2023/02/27 12:29:54;;;;;;;;;;;;;;;;;;4934420;28;20622;-78
2023/02/27 12:32:41;;;;;;;;;;;;;;;;;;4937400;28;20379;-80
2023/02/27 12:35:27;;;;;;;;;;;;;;;;;;4928534;29;19919;-77
2023/02/27 12:38:14;;;;;;;;;;;;;;;;;;4945882;28;19941;-80
2023/02/27 12:41:01;;;;;;;;;;;;;;;;;;4938761;28;19915;-77
2023/02/27 12:43:47;;;;;;;;;;;;;;;;;;4940034;28;20008;-78
2023/02/27 12:46:35;;;;;;;;;;;;;;;;;;4934483;29;20381;-77
2023/02/27 12:49:22;;;;;;;;;;;;;;;;;;4933139;29;19923;-78
2023/02/27 12:52:08;;;;;;;;;;;;;;;;;;4938637;29;19918;-77
2023/02/27 12:54:55;;;;;;;;;;;;;;;;;;4938901;29;19926;-77
2023/02/27 12:57:41;;;;;;;;;;;;;;;;;;4937219;28;20339;-79
2023/02/27 13:00:28;;;;;;;;;;;;;;;;;;4937132;28;19919;-78
2023/02/27 13:03:14;;;;;;;;;;;;;;;;;;4937571;28;20395;-78
2023/02/27 13:06:01;;;;;;;;;;;;;;;;;;4943319;28;20422;-78
2023/02/27 13:08:47;;;;;;;;;;;;;;;;;;4929249;28;19922;-79
2023/02/27 13:11:34;;;;;;;;;;;;;;;;;;4910975;29;19941;-78
2023/02/27 13:14:23;;;;;;;;;;;;;;;;;;4917755;29;19933;-78
2023/02/27 13:17:09;;;;;;;;;;;;;;;;;;4915192;29;19919;-78
2023/02/27 13:19:56;;;;;;;;;;;;;;;;;;4911958;28;19919;-78
2023/02/27 13:22:42;;;;;;;;;;;;;;;;;;4912968;29;19922;-79
2023/02/27 13:25:29;;;;;;;;;;;;;;;;;;4926053;29;19915;-77
2023/02/27 13:28:15;;;;;;;;;;;;;;;;;;4902768;29;19922;-78
2023/02/27 13:31:02;;;;;;;;;;;;;;;;;;4920863;28;20009;-77
2023/02/27 13:33:48;;;;;;;;;;;;;;;;;;4928150;29;19927;-77
2023/02/27 13:36:35;;;;;;;;;;;;;;;;;;4926079;29;19919;-80
2023/02/27 13:39:22;;;;;;;;;;;;;;;;;;4919928;29;19919;-78
2023/02/27 13:42:08;;;;;;;;;;;;;;;;;;4905851;29;20024;-78
2023/02/27 13:44:55;;;;;;;;;;;;;;;;;;4931320;28;19919;-77
2023/02/27 13:47:42;;;;;;;;;;;;;;;;;;4902106;29;19926;-79
2023/02/27 13:50:28;;;;;;;;;;;;;;;;;;4912180;29;19920;-77
2023/02/27 13:53:15;;;;;;;;;;;;;;;;;;4917982;29;19923;-78
2023/02/27 13:56:01;;;;;;;;;;;;;;;;;;4915906;29;19923;-78
2023/02/27 13:58:48;;;;;;;;;;;;;;;;;;4903753;29;20384;-78
2023/02/27 14:01:35;;;;;;;;;;;;;;;;;;4921718;29;19930;-78
2023/02/27 14:04:23;;;;;;;;;;;;;;;;;;4904254;29;19926;-78
2023/02/27 14:07:10;;;;;;;;;;;;;;;;;;4916947;29;19919;-78
2023/02/27 14:09:56;;;;;;;;;;;;;;;;;;4923379;29;20268;-78
2023/02/27 14:12:43;;;;;;;;;;;;;;;;;;4936654;29;19925;-79
2023/02/27 14:15:29;;;;;;;;;;;;;;;;;;4928252;29;19960;-77
2023/02/27 14:18:16;;;;;;;;;;;;;;;;;;4928092;29;19922;-78
2023/02/27 14:21:02;;;;;;;;;;;;;;;;;;4944936;29;19921;-78
2023/02/27 14:23:53;;;;;;;;;;;;;;;;;;4937889;29;20218;-78
2023/02/27 14:26:40;;;;;;;;;;;;;;;;;;4938918;28;20323;-78
2023/02/27 14:29:29;;;;;;;;;;;;;;;;;;4932879;29;20287;-78
2023/02/27 14:32:16;;;;;;;;;;;;;;;;;;4935142;28;19921;-77
2023/02/27 14:35:02;;;;;;;;;;;;;;;;;;4929151;28;19963;-78
2023/02/27 14:37:49;;;;;;;;;;;;;;;;;;4918838;29;20331;-78
2023/02/27 14:40:35;;;;;;;;;;;;;;;;;;4931382;29;19920;-78
2023/02/27 14:43:22;;;;;;;;;;;;;;;;;;4931231;28;19930;-78
2023/02/27 14:46:08;;;;;;;;;;;;;;;;;;4940443;29;19925;-78
2023/02/27 14:48:55;;;;;;;;;;;;;;;;;;4928425;28;19929;-77
2023/02/27 14:51:41;;;;;;;;;;;;;;;;;;4932118;29;19969;-79
2023/02/27 14:54:28;;;;;;;;;;;;;;;;;;4931755;29;19961;-78
2023/02/27 14:57:14;;;;;;;;;;;;;;;;;;4937539;28;19925;-78
2023/02/27 15:00:01;;;;;;;;;;;;;;;;;;4933570;29;19930;-78
2023/02/27 15:02:47;;;;;;;;;;;;;;;;;;4932350;29;19926;-79
2023/02/27 15:05:34;;;;;;;;;;;;;;;;;;4935186;28;19923;-78
2023/02/27 15:08:21;;;;;;;;;;;;;;;;;;4938469;29;19921;-78
2023/02/27 15:11:07;;;;;;;;;;;;;;;;;;4944936;28;19937;-78
2023/02/27 15:13:53;;;;;;;;;;;;;;;;;;4934803;29;20307;-79
2023/02/27 15:16:41;;;;;;;;;;;;;;;;;;4926541;29;19914;-78
2023/02/27 15:19:27;;;;;;;;;;;;;;;;;;4920744;28;19918;-78
2023/02/27 15:22:14;;;;;;;;;;;;;;;;;;4930438;29;19918;-79
2023/02/27 15:25:03;;;;;;;;;;;;;;;;;;4937808;28;19926;-79
2023/02/27 15:27:50;;;;;;;;;;;;;;;;;;4941707;28;19918;-79
2023/02/27 15:30:36;;;;;;;;;;;;;;;;;;4932825;28;20397;-78
2023/02/27 15:33:25;;;;;;;;;;;;;;;;;;4933667;29;19923;-78
2023/02/27 15:36:11;;;;;;;;;;;;;;;;;;4931145;28;19918;-78
2023/02/27 15:38:58;;;;;;;;;;;;;;;;;;4930868;28;19918;-79
2023/02/27 15:41:44;;;;;;;;;;;;;;;;;;4939090;28;19935;-79
2023/02/27 15:44:31;;;;;;;;;;;;;;;;;;4931654;28;19953;-79
2023/02/27 15:47:17;;;;;;;;;;;;;;;;;;4922609;28;19918;-78
2023/02/27 15:50:04;;;;;;;;;;;;;;;;;;4926518;29;19918;-78
2023/02/27 15:52:50;;;;;;;;;;;;;;;;;;4919733;28;19918;-78
2023/02/27 15:55:37;;;;;;;;;;;;;;;;;;4931156;29;19927;-79
2023/02/27 15:58:23;;;;;;;;;;;;;;;;;;4927576;28;20324;-79
2023/02/27 16:01:10;;;;;;;;;;;;;;;;;;4931750;29;20531;-79
2023/02/27 16:03:56;;;;;;;;;;;;;;;;;;4925994;29;19923;-78
2023/02/27 16:06:43;;;;;;;;;;;;;;;;;;4932888;28;19995;-79
2023/02/27 16:09:29;;;;;;;;;;;;;;;;;;4941413;29;20577;-78
2023/02/27 16:12:16;;;;;;;;;;;;;;;;;;4934819;29;20670;-78
2023/02/27 16:15:02;;;;;;;;;;;;;;;;;;4939306;29;19930;-78
2023/02/27 16:17:49;;;;;;;;;;;;;;;;;;4945033;29;20276;-78
2023/02/27 16:20:36;;;;;;;;;;;;;;;;;;4929971;29;20387;-78
2023/02/27 16:23:22;;;;;;;;;;;;;;;;;;4927850;29;19926;-74
2023/02/27 16:26:09;;;;;;;;;;;;;;;;;;4938411;29;19925;-74
2023/02/27 16:28:55;;;;;;;;;;;;;;;;;;4945416;28;19922;-75
2023/02/27 16:31:42;;;;;;;;;;;;;;;;;;4943698;28;19926;-74
2023/02/27 16:34:28;;;;;;;;;;;;;;;;;;4934440;28;20387;-74
2023/02/27 16:37:15;;;;;;;;;;;;;;;;;;4941961;28;19918;-75
2023/02/27 16:40:04;;;;;;;;;;;;;;;;;;4944289;28;19930;-75
2023/02/27 16:42:50;;;;;;;;;;;;;;;;;;4941918;28;20284;-74
2023/02/27 16:45:37;;;;;;;;;;;;;;;;;;4947141;28;19918;-73
2023/02/27 16:48:24;;;;;;;;;;;;;;;;;;4940969;28;19929;-78
2023/02/27 16:51:10;;;;;;;;;;;;;;;;;;4935396;28;19929;-76
2023/02/27 16:53:57;;;;;;;;;;;;;;;;;;4935886;29;20349;-74
2023/02/27 16:56:45;;;;;;;;;;;;;;;;;;4934142;28;19918;-75
2023/02/27 16:59:32;;;;;;;;;;;;;;;;;;4934901;28;20383;-75
2023/02/27 17:02:18;;;;;;;;;;;;;;;;;;4942063;28;19929;-80
2023/02/27 17:05:05;;;;;;;;;;;;;;;;;;4946472;28;19925;-77
2023/02/27 17:07:51;;;;;;;;;;;;;;;;;;4927057;29;19926;-77
2023/02/27 17:10:38;;;;;;;;;;;;;;;;;;4944814;29;20295;-77
2023/02/27 17:13:24;;;;;;;;;;;;;;;;;;4933017;29;19938;-78
2023/02/27 17:16:11;;;;;;;;;;;;;;;;;;4918373;28;20432;-77
2023/02/27 17:18:57;;;;;;;;;;;;;;;;;;4935850;28;19919;-77
2023/02/27 17:21:44;;;;;;;;;;;;;;;;;;4932683;28;19952;-77
2023/02/27 17:24:30;;;;;;;;;;;;;;;;;;4944015;28;19929;-78
2023/02/27 17:27:17;;;;;;;;;;;;;;;;;;4931179;29;19978;-76
2023/02/27 17:30:03;;;;;;;;;;;;;;;;;;4932062;28;19929;-76
2023/02/27 17:32:50;;;;;;;;;;;;;;;;;;4923305;28;19918;-78
2023/02/27 17:35:36;;;;;;;;;;;;;;;;;;4939385;29;19930;-77
2023/02/27 17:38:23;;;;;;;;;;;;;;;;;;4934693;28;19918;-77
2023/02/27 17:41:09;;;;;;;;;;;;;;;;;;4932701;29;19919;-77
2023/02/27 17:43:56;;;;;;;;;;;;;;;;;;4932361;28;19954;-82
2023/02/27 17:46:42;;;;;;;;;;;;;;;;;;4938321;28;19918;-80
2023/02/27 17:49:29;;;;;;;;;;;;;;;;;;4938779;29;19922;-83
2023/02/27 17:52:15;;;;;;;;;;;;;;;;;;4939334;29;19919;-82
2023/02/27 17:55:02;;;;;;;;;;;;;;;;;;4935979;28;20438;-81
2023/02/27 17:57:48;;;;;;;;;;;;;;;;;;4940029;28;19923;-81
2023/02/27 18:00:35;;;;;;;;;;;;;;;;;;4938659;28;19966;-82
2023/02/27 18:03:21;;;;;;;;;;;;;;;;;;4936997;28;19923;-83
2023/02/27 18:06:08;;;;;;;;;;;;;;;;;;4939036;28;19919;-84
2023/02/27 18:08:54;;;;;;;;;;;;;;;;;;4941279;29;20287;-83
2023/02/27 18:11:41;;;;;;;;;;;;;;;;;;4928994;28;19948;-86
2023/02/27 18:14:27;;;;;;;;;;;;;;;;;;4942469;28;19926;-85
2023/02/27 18:17:14;;;;;;;;;;;;;;;;;;4944003;28;20404;-83
2023/02/27 18:20:00;;;;;;;;;;;;;;;;;;4931248;28;19922;-84
2023/02/27 18:22:47;;;;;;;;;;;;;;;;;;4938590;28;19930;-84
2023/02/27 18:25:33;;;;;;;;;;;;;;;;;;4939790;28;20442;-83
2023/02/27 18:28:20;;;;;;;;;;;;;;;;;;4926067;28;19926;-84
2023/02/27 18:31:06;;;;;;;;;;;;;;;;;;4926116;28;20046;-84
2023/02/27 18:33:53;;;;;;;;;;;;;;;;;;4939469;28;19938;-85
2023/02/27 18:36:39;;;;;;;;;;;;;;;;;;4927503;29;19922;-85
2023/02/27 18:39:26;;;;;;;;;;;;;;;;;;4939181;28;20342;-85
2023/02/27 18:42:12;;;;;;;;;;;;;;;;;;4935047;28;19919;-84
2023/02/27 18:44:59;;;;;;;;;;;;;;;;;;4928136;28;20375;-84
2023/02/27 18:47:45;;;;;;;;;;;;;;;;;;4913432;28;20163;-84
2023/02/27 18:50:32;;;;;;;;;;;;;;;;;;4940155;28;19934;-84
2023/02/27 18:53:18;;;;;;;;;;;;;;;;;;4939729;29;19922;-84
2023/02/27 18:56:05;;;;;;;;;;;;;;;;;;4940370;29;20283;-84
2023/02/27 18:58:51;;;;;;;;;;;;;;;;;;4938002;28;19924;-82
2023/02/27 19:01:38;;;;;;;;;;;;;;;;;;4927035;29;19922;-82
2023/02/27 19:04:24;;;;;;;;;;;;;;;;;;4925497;28;19929;-81
2023/02/27 19:07:11;;;;;;;;;;;;;;;;;;4939319;29;19919;-76